sensor_id;sensor_type;location;lat;lon;timestamp;temperature;humidity
78886;DHT22;68269;52.514;5.722;2023-05-10T00:02:23;14.70;72.40
78886;DHT22;68269;52.514;5.722;2023-05-10T00:04:53;14.70;72.50
78886;DHT22;68269;52.514;5.722;2023-05-10T00:07:22;14.60;72.50
78886;DHT22;68269;52.514;5.722;2023-05-10T00:09:51;14.70;72.50
78886;DHT22;68269;52.514;5.722;2023-05-10T00:12:20;14.70;72.40
78886;DHT22;68269;52.514;5.722;2023-05-10T00:14:50;14.70;72.40
78886;DHT22;68269;52.514;5.722;2023-05-10T00:17:19;14.70;72.50
78886;DHT22;68269;52.514;5.722;2023-05-10T00:19:51;14.70;72.50
78886;DHT22;68269;52.514;5.722;2023-05-10T00:22:20;14.70;72.50
78886;DHT22;68269;52.514;5.722;2023-05-10T00:24:49;14.70;72.50
78886;DHT22;68269;52.514;5.722;2023-05-10T00:27:19;14.60;72.50
78886;DHT22;68269;52.514;5.722;2023-05-10T00:29:48;14.60;72.50
78886;DHT22;68269;52.514;5.722;2023-05-10T00:32:17;14.60;72.50
78886;DHT22;68269;52.514;5.722;2023-05-10T00:34:46;14.60;72.50
78886;DHT22;68269;52.514;5.722;2023-05-10T00:37:18;14.60;72.60
78886;DHT22;68269;52.514;5.722;2023-05-10T00:39:48;14.60;72.60
78886;DHT22;68269;52.514;5.722;2023-05-10T00:42:18;14.60;72.50
78886;DHT22;68269;52.514;5.722;2023-05-10T00:44:47;14.60;72.50
78886;DHT22;68269;52.514;5.722;2023-05-10T00:47:17;14.60;72.50
78886;DHT22;68269;52.514;5.722;2023-05-10T00:49:46;14.60;72.50
78886;DHT22;68269;52.514;5.722;2023-05-10T00:52:18;14.60;72.50
78886;DHT22;68269;52.514;5.722;2023-05-10T00:54:50;14.60;72.50
78886;DHT22;68269;52.514;5.722;2023-05-10T00:57:21;14.60;72.50
78886;DHT22;68269;52.514;5.722;2023-05-10T00:59:50;14.60;72.60
78886;DHT22;68269;52.514;5.722;2023-05-10T01:02:20;14.60;72.50
78886;DHT22;68269;52.514;5.722;2023-05-10T01:04:50;14.60;72.50
78886;DHT22;68269;52.514;5.722;2023-05-10T01:07:22;14.50;72.50
78886;DHT22;68269;52.514;5.722;2023-05-10T01:09:51;14.60;72.60
78886;DHT22;68269;52.514;5.722;2023-05-10T01:12:21;14.50;72.60
78886;DHT22;68269;52.514;5.722;2023-05-10T01:14:50;14.50;72.60
78886;DHT22;68269;52.514;5.722;2023-05-10T01:17:20;14.50;72.60
78886;DHT22;68269;52.514;5.722;2023-05-10T01:19:49;14.50;72.60
78886;DHT22;68269;52.514;5.722;2023-05-10T01:22:50;14.50;72.60
78886;DHT22;68269;52.514;5.722;2023-05-10T01:25:37;14.50;72.70
78886;DHT22;68269;52.514;5.722;2023-05-10T01:28:36;14.50;72.70
78886;DHT22;68269;52.514;5.722;2023-05-10T01:31:27;14.40;72.60
78886;DHT22;68269;52.514;5.722;2023-05-10T01:34:04;14.40;72.60
78886;DHT22;68269;52.514;5.722;2023-05-10T01:36:43;14.40;72.60
78886;DHT22;68269;52.514;5.722;2023-05-10T01:39:16;14.40;72.60
78886;DHT22;68269;52.514;5.722;2023-05-10T01:41:51;14.40;72.60
78886;DHT22;68269;52.514;5.722;2023-05-10T01:44:28;14.50;72.60
78886;DHT22;68269;52.514;5.722;2023-05-10T01:47:03;14.40;72.60
78886;DHT22;68269;52.514;5.722;2023-05-10T01:49:39;14.40;72.60
78886;DHT22;68269;52.514;5.722;2023-05-10T01:52:12;14.40;72.70
78886;DHT22;68269;52.514;5.722;2023-05-10T01:54:44;14.40;72.60
78886;DHT22;68269;52.514;5.722;2023-05-10T01:57:16;14.40;72.50
78886;DHT22;68269;52.514;5.722;2023-05-10T01:59:50;14.40;72.60
78886;DHT22;68269;52.514;5.722;2023-05-10T02:02:21;14.40;72.60
78886;DHT22;68269;52.514;5.722;2023-05-10T02:04:54;14.40;72.60
78886;DHT22;68269;52.514;5.722;2023-05-10T02:07:24;14.40;72.60
78886;DHT22;68269;52.514;5.722;2023-05-10T02:09:54;14.30;72.60
78886;DHT22;68269;52.514;5.722;2023-05-10T02:12:25;14.40;72.50
78886;DHT22;68269;52.514;5.722;2023-05-10T02:14:56;14.30;72.60
78886;DHT22;68269;52.514;5.722;2023-05-10T02:17:27;14.30;72.60
78886;DHT22;68269;52.514;5.722;2023-05-10T02:20:01;14.40;72.60
78886;DHT22;68269;52.514;5.722;2023-05-10T02:22:33;14.40;72.60
78886;DHT22;68269;52.514;5.722;2023-05-10T02:25:05;14.40;72.60
78886;DHT22;68269;52.514;5.722;2023-05-10T02:27:37;14.40;72.60
78886;DHT22;68269;52.514;5.722;2023-05-10T02:30:08;14.40;72.70
78886;DHT22;68269;52.514;5.722;2023-05-10T02:32:39;14.40;72.70
78886;DHT22;68269;52.514;5.722;2023-05-10T02:35:11;14.30;72.70
78886;DHT22;68269;52.514;5.722;2023-05-10T02:37:42;14.40;72.70
78886;DHT22;68269;52.514;5.722;2023-05-10T02:40:13;14.30;72.70
78886;DHT22;68269;52.514;5.722;2023-05-10T02:42:44;14.30;72.70
78886;DHT22;68269;52.514;5.722;2023-05-10T02:45:19;14.40;72.70
78886;DHT22;68269;52.514;5.722;2023-05-10T02:47:49;14.40;72.70
78886;DHT22;68269;52.514;5.722;2023-05-10T02:50:26;14.40;72.70
78886;DHT22;68269;52.514;5.722;2023-05-10T02:53:00;14.40;72.60
78886;DHT22;68269;52.514;5.722;2023-05-10T02:55:36;14.40;72.60
78886;DHT22;68269;52.514;5.722;2023-05-10T02:58:07;14.40;72.70
78886;DHT22;68269;52.514;5.722;2023-05-10T03:00:36;14.40;72.70
78886;DHT22;68269;52.514;5.722;2023-05-10T03:03:06;14.40;72.70
78886;DHT22;68269;52.514;5.722;2023-05-10T03:05:38;14.40;72.70
78886;DHT22;68269;52.514;5.722;2023-05-10T03:08:08;14.40;72.70
78886;DHT22;68269;52.514;5.722;2023-05-10T03:10:41;14.40;72.70
78886;DHT22;68269;52.514;5.722;2023-05-10T03:13:20;14.40;72.70
78886;DHT22;68269;52.514;5.722;2023-05-10T03:15:59;14.50;72.70
78886;DHT22;68269;52.514;5.722;2023-05-10T03:18:40;14.40;72.70
78886;DHT22;68269;52.514;5.722;2023-05-10T03:21:14;14.50;72.70
78886;DHT22;68269;52.514;5.722;2023-05-10T03:23:51;14.50;72.70
78886;DHT22;68269;52.514;5.722;2023-05-10T03:26:24;14.40;72.70
78886;DHT22;68269;52.514;5.722;2023-05-10T03:29:04;14.40;72.80
78886;DHT22;68269;52.514;5.722;2023-05-10T03:31:35;14.50;72.80
78886;DHT22;68269;52.514;5.722;2023-05-10T03:34:05;14.50;72.80
78886;DHT22;68269;52.514;5.722;2023-05-10T03:36:36;14.50;72.80
78886;DHT22;68269;52.514;5.722;2023-05-10T03:39:06;14.50;72.80
78886;DHT22;68269;52.514;5.722;2023-05-10T03:41:37;14.50;72.80
78886;DHT22;68269;52.514;5.722;2023-05-10T03:44:06;14.50;72.80
78886;DHT22;68269;52.514;5.722;2023-05-10T03:46:35;14.50;72.80
78886;DHT22;68269;52.514;5.722;2023-05-10T03:49:05;14.50;72.80
78886;DHT22;68269;52.514;5.722;2023-05-10T03:51:37;14.50;72.80
78886;DHT22;68269;52.514;5.722;2023-05-10T03:54:06;14.50;72.80
78886;DHT22;68269;52.514;5.722;2023-05-10T03:56:35;14.50;72.90
78886;DHT22;68269;52.514;5.722;2023-05-10T03:59:05;14.50;72.80
78886;DHT22;68269;52.514;5.722;2023-05-10T04:01:35;14.50;72.80
78886;DHT22;68269;52.514;5.722;2023-05-10T04:04:04;14.50;72.80
78886;DHT22;68269;52.514;5.722;2023-05-10T04:06:38;14.50;72.80
78886;DHT22;68269;52.514;5.722;2023-05-10T04:09:07;14.40;72.80
78886;DHT22;68269;52.514;5.722;2023-05-10T04:11:37;14.40;72.90
78886;DHT22;68269;52.514;5.722;2023-05-10T04:14:07;14.40;72.90
78886;DHT22;68269;52.514;5.722;2023-05-10T04:16:36;14.40;72.80
78886;DHT22;68269;52.514;5.722;2023-05-10T04:19:05;14.40;72.80
78886;DHT22;68269;52.514;5.722;2023-05-10T04:21:37;14.40;72.80
78886;DHT22;68269;52.514;5.722;2023-05-10T04:24:06;14.40;72.80
78886;DHT22;68269;52.514;5.722;2023-05-10T04:26:36;14.40;72.80
78886;DHT22;68269;52.514;5.722;2023-05-10T04:29:05;14.40;72.70
78886;DHT22;68269;52.514;5.722;2023-05-10T04:31:34;14.40;72.70
78886;DHT22;68269;52.514;5.722;2023-05-10T04:34:04;14.30;72.70
78886;DHT22;68269;52.514;5.722;2023-05-10T04:36:34;14.30;72.60
78886;DHT22;68269;52.514;5.722;2023-05-10T04:39:06;14.30;72.60
78886;DHT22;68269;52.514;5.722;2023-05-10T04:41:37;14.30;72.60
78886;DHT22;68269;52.514;5.722;2023-05-10T04:44:07;14.30;72.60
78886;DHT22;68269;52.514;5.722;2023-05-10T04:46:36;14.30;72.60
78886;DHT22;68269;52.514;5.722;2023-05-10T04:49:05;14.30;72.60
78886;DHT22;68269;52.514;5.722;2023-05-10T04:51:34;14.30;72.60
78886;DHT22;68269;52.514;5.722;2023-05-10T04:54:06;14.30;72.50
78886;DHT22;68269;52.514;5.722;2023-05-10T04:56:36;14.30;72.50
78886;DHT22;68269;52.514;5.722;2023-05-10T04:59:05;14.30;72.50
78886;DHT22;68269;52.514;5.722;2023-05-10T05:01:35;14.30;72.50
78886;DHT22;68269;52.514;5.722;2023-05-10T05:04:04;14.30;72.50
78886;DHT22;68269;52.514;5.722;2023-05-10T05:06:34;14.30;72.50
78886;DHT22;68269;52.514;5.722;2023-05-10T05:09:05;14.30;72.40
78886;DHT22;68269;52.514;5.722;2023-05-10T05:11:36;14.30;72.30
78886;DHT22;68269;52.514;5.722;2023-05-10T05:14:06;14.30;72.30
78886;DHT22;68269;52.514;5.722;2023-05-10T05:16:35;14.30;72.30
78886;DHT22;68269;52.514;5.722;2023-05-10T05:19:05;14.30;72.30
78886;DHT22;68269;52.514;5.722;2023-05-10T05:21:34;14.30;72.20
78886;DHT22;68269;52.514;5.722;2023-05-10T05:24:07;14.30;72.20
78886;DHT22;68269;52.514;5.722;2023-05-10T05:26:37;14.30;72.20
78886;DHT22;68269;52.514;5.722;2023-05-10T05:29:06;14.30;72.20
78886;DHT22;68269;52.514;5.722;2023-05-10T05:31:35;14.30;72.20
78886;DHT22;68269;52.514;5.722;2023-05-10T05:34:05;14.30;72.20
78886;DHT22;68269;52.514;5.722;2023-05-10T05:36:36;14.30;72.20
78886;DHT22;68269;52.514;5.722;2023-05-10T05:39:08;14.30;72.20
78886;DHT22;68269;52.514;5.722;2023-05-10T05:41:38;14.30;72.20
78886;DHT22;68269;52.514;5.722;2023-05-10T05:44:07;14.30;72.20
78886;DHT22;68269;52.514;5.722;2023-05-10T05:46:36;14.30;72.20
78886;DHT22;68269;52.514;5.722;2023-05-10T05:49:06;14.20;72.20
78886;DHT22;68269;52.514;5.722;2023-05-10T05:51:35;14.20;72.20
78886;DHT22;68269;52.514;5.722;2023-05-10T05:54:04;14.20;72.20
78886;DHT22;68269;52.514;5.722;2023-05-10T05:56:36;14.20;72.20
78886;DHT22;68269;52.514;5.722;2023-05-10T05:59:05;14.20;72.20
78886;DHT22;68269;52.514;5.722;2023-05-10T06:01:35;14.30;72.20
78886;DHT22;68269;52.514;5.722;2023-05-10T06:04:04;14.30;72.10
78886;DHT22;68269;52.514;5.722;2023-05-10T06:06:33;14.40;72.10
78886;DHT22;68269;52.514;5.722;2023-05-10T06:09:03;14.40;72.00
78886;DHT22;68269;52.514;5.722;2023-05-10T06:11:32;14.50;72.00
78886;DHT22;68269;52.514;5.722;2023-05-10T06:14:04;14.50;71.90
78886;DHT22;68269;52.514;5.722;2023-05-10T06:16:34;14.60;72.00
78886;DHT22;68269;52.514;5.722;2023-05-10T06:19:03;14.60;71.90
78886;DHT22;68269;52.514;5.722;2023-05-10T06:21:33;14.60;71.90
78886;DHT22;68269;52.514;5.722;2023-05-10T06:24:02;14.60;71.90
78886;DHT22;68269;52.514;5.722;2023-05-10T06:26:32;14.60;71.90
78886;DHT22;68269;52.514;5.722;2023-05-10T06:29:04;14.70;71.90
78886;DHT22;68269;52.514;5.722;2023-05-10T06:31:34;14.70;71.80
78886;DHT22;68269;52.514;5.722;2023-05-10T06:34:03;14.70;71.80
78886;DHT22;68269;52.514;5.722;2023-05-10T06:36:34;14.70;71.80
78886;DHT22;68269;52.514;5.722;2023-05-10T06:39:03;14.70;71.80
78886;DHT22;68269;52.514;5.722;2023-05-10T06:41:33;14.70;71.80
78886;DHT22;68269;52.514;5.722;2023-05-10T06:44:05;14.70;71.80
78886;DHT22;68269;52.514;5.722;2023-05-10T06:46:34;14.70;71.90
78886;DHT22;68269;52.514;5.722;2023-05-10T06:49:04;14.70;71.90
78886;DHT22;68269;52.514;5.722;2023-05-10T06:51:33;14.60;71.90
78886;DHT22;68269;52.514;5.722;2023-05-10T06:54:02;14.70;71.80
78886;DHT22;68269;52.514;5.722;2023-05-10T06:56:33;14.70;71.80
78886;DHT22;68269;52.514;5.722;2023-05-10T06:59:05;14.70;71.80
78886;DHT22;68269;52.514;5.722;2023-05-10T07:01:34;14.70;71.80
78886;DHT22;68269;52.514;5.722;2023-05-10T07:04:03;14.80;71.70
78886;DHT22;68269;52.514;5.722;2023-05-10T07:06:33;14.80;71.70
78886;DHT22;68269;52.514;5.722;2023-05-10T07:09:03;14.80;71.70
78886;DHT22;68269;52.514;5.722;2023-05-10T07:11:33;14.80;71.70
78886;DHT22;68269;52.514;5.722;2023-05-10T07:14:06;14.90;71.60
78886;DHT22;68269;52.514;5.722;2023-05-10T07:16:35;14.80;71.50
78886;DHT22;68269;52.514;5.722;2023-05-10T07:19:05;14.90;71.50
78886;DHT22;68269;52.514;5.722;2023-05-10T07:21:34;14.90;71.50
78886;DHT22;68269;52.514;5.722;2023-05-10T07:24:03;14.90;71.50
78886;DHT22;68269;52.514;5.722;2023-05-10T07:26:33;14.90;71.40
78886;DHT22;68269;52.514;5.722;2023-05-10T07:29:02;15.00;71.40
78886;DHT22;68269;52.514;5.722;2023-05-10T07:31:34;15.00;71.40
78886;DHT22;68269;52.514;5.722;2023-05-10T07:34:03;15.00;71.40
78886;DHT22;68269;52.514;5.722;2023-05-10T07:36:33;15.00;71.40
78886;DHT22;68269;52.514;5.722;2023-05-10T07:39:02;15.00;71.40
78886;DHT22;68269;52.514;5.722;2023-05-10T07:41:31;15.00;71.40
78886;DHT22;68269;52.514;5.722;2023-05-10T07:44:01;15.00;71.40
78886;DHT22;68269;52.514;5.722;2023-05-10T07:46:30;15.00;71.30
78886;DHT22;68269;52.514;5.722;2023-05-10T07:49:02;15.00;71.40
78886;DHT22;68269;52.514;5.722;2023-05-10T07:51:31;15.00;71.40
78886;DHT22;68269;52.514;5.722;2023-05-10T07:54:00;15.00;71.30
78886;DHT22;68269;52.514;5.722;2023-05-10T07:56:31;15.10;71.20
78886;DHT22;68269;52.514;5.722;2023-05-10T07:59:02;15.10;71.20
78886;DHT22;68269;52.514;5.722;2023-05-10T08:01:33;15.20;71.10
78886;DHT22;68269;52.514;5.722;2023-05-10T08:04:06;15.30;71.00
78886;DHT22;68269;52.514;5.722;2023-05-10T08:06:35;15.30;71.00
78886;DHT22;68269;52.514;5.722;2023-05-10T08:09:04;15.30;70.90
78886;DHT22;68269;52.514;5.722;2023-05-10T08:11:33;15.40;70.90
78886;DHT22;68269;52.514;5.722;2023-05-10T08:14:03;15.40;70.80
78886;DHT22;68269;52.514;5.722;2023-05-10T08:16:32;15.50;70.80
78886;DHT22;68269;52.514;5.722;2023-05-10T08:19:01;15.50;70.80
78886;DHT22;68269;52.514;5.722;2023-05-10T08:21:33;15.50;70.80
78886;DHT22;68269;52.514;5.722;2023-05-10T08:24:03;15.50;70.80
78886;DHT22;68269;52.514;5.722;2023-05-10T08:26:33;15.40;70.80
78886;DHT22;68269;52.514;5.722;2023-05-10T08:29:02;15.40;70.90
78886;DHT22;68269;52.514;5.722;2023-05-10T08:31:31;15.40;70.90
78886;DHT22;68269;52.514;5.722;2023-05-10T08:34:01;15.40;70.90
78886;DHT22;68269;52.514;5.722;2023-05-10T08:36:33;15.40;70.90
78886;DHT22;68269;52.514;5.722;2023-05-10T08:39:02;15.40;70.80
78886;DHT22;68269;52.514;5.722;2023-05-10T08:41:33;15.50;70.70
78886;DHT22;68269;52.514;5.722;2023-05-10T08:44:04;15.40;70.70
78886;DHT22;68269;52.514;5.722;2023-05-10T08:46:34;15.40;70.70
78886;DHT22;68269;52.514;5.722;2023-05-10T08:49:09;15.40;70.70
78886;DHT22;68269;52.514;5.722;2023-05-10T08:51:46;15.40;70.80
78886;DHT22;68269;52.514;5.722;2023-05-10T08:54:16;15.30;70.80
78886;DHT22;68269;52.514;5.722;2023-05-10T08:56:45;15.30;70.80
78886;DHT22;68269;52.514;5.722;2023-05-10T08:59:15;15.30;70.80
78886;DHT22;68269;52.514;5.722;2023-05-10T09:01:45;15.20;70.80
78886;DHT22;68269;52.514;5.722;2023-05-10T09:04:15;15.20;70.80
78886;DHT22;68269;52.514;5.722;2023-05-10T09:06:47;15.30;70.80
78886;DHT22;68269;52.514;5.722;2023-05-10T09:09:17;15.40;70.70
78886;DHT22;68269;52.514;5.722;2023-05-10T09:11:47;15.50;70.60
78886;DHT22;68269;52.514;5.722;2023-05-10T09:14:16;15.50;70.50
78886;DHT22;68269;52.514;5.722;2023-05-10T09:16:47;15.60;70.40
78886;DHT22;68269;52.514;5.722;2023-05-10T09:19:16;15.70;70.20
78886;DHT22;68269;52.514;5.722;2023-05-10T09:21:49;15.80;70.10
78886;DHT22;68269;52.514;5.722;2023-05-10T09:24:18;15.80;70.10
78886;DHT22;68269;52.514;5.722;2023-05-10T09:26:47;15.80;70.10
78886;DHT22;68269;52.514;5.722;2023-05-10T09:29:17;15.80;70.10
78886;DHT22;68269;52.514;5.722;2023-05-10T09:31:47;15.80;70.10
78886;DHT22;68269;52.514;5.722;2023-05-10T09:34:28;15.80;70.10
78886;DHT22;68269;52.514;5.722;2023-05-10T09:37:02;15.80;70.20
78886;DHT22;68269;52.514;5.722;2023-05-10T09:39:32;15.80;70.10
78886;DHT22;68269;52.514;5.722;2023-05-10T09:42:03;15.90;70.10
78886;DHT22;68269;52.514;5.722;2023-05-10T09:44:34;15.90;70.00
78886;DHT22;68269;52.514;5.722;2023-05-10T09:47:04;16.00;70.00
78886;DHT22;68269;52.514;5.722;2023-05-10T09:49:34;16.00;69.90
78886;DHT22;68269;52.514;5.722;2023-05-10T09:52:07;16.00;69.90
78886;DHT22;68269;52.514;5.722;2023-05-10T09:54:36;16.00;69.90
78886;DHT22;68269;52.514;5.722;2023-05-10T09:57:09;16.00;70.00
78886;DHT22;68269;52.514;5.722;2023-05-10T09:59:47;16.00;70.00
78886;DHT22;68269;52.514;5.722;2023-05-10T10:02:17;16.10;70.00
78886;DHT22;68269;52.514;5.722;2023-05-10T10:04:49;16.10;70.00
78886;DHT22;68269;52.514;5.722;2023-05-10T10:07:25;16.10;70.00
78886;DHT22;68269;52.514;5.722;2023-05-10T10:09:55;16.10;69.90
78886;DHT22;68269;52.514;5.722;2023-05-10T10:12:25;16.00;70.00
78886;DHT22;68269;52.514;5.722;2023-05-10T10:14:55;16.00;70.00
78886;DHT22;68269;52.514;5.722;2023-05-10T10:17:27;16.00;70.00
78886;DHT22;68269;52.514;5.722;2023-05-10T10:19:57;16.00;69.90
78886;DHT22;68269;52.514;5.722;2023-05-10T10:22:29;16.00;69.80
78886;DHT22;68269;52.514;5.722;2023-05-10T10:24:59;16.00;69.80
78886;DHT22;68269;52.514;5.722;2023-05-10T10:27:36;16.00;69.70
78886;DHT22;68269;52.514;5.722;2023-05-10T10:30:16;16.00;69.70
78886;DHT22;68269;52.514;5.722;2023-05-10T10:33:01;16.00;69.70
78886;DHT22;68269;52.514;5.722;2023-05-10T10:35:36;16.00;69.60
78886;DHT22;68269;52.514;5.722;2023-05-10T10:38:09;16.00;69.60
78886;DHT22;68269;52.514;5.722;2023-05-10T10:40:38;16.00;69.70
78886;DHT22;68269;52.514;5.722;2023-05-10T10:43:22;16.00;69.70
78886;DHT22;68269;52.514;5.722;2023-05-10T10:46:10;16.00;69.80
78886;DHT22;68269;52.514;5.722;2023-05-10T10:48:40;16.00;69.60
78886;DHT22;68269;52.514;5.722;2023-05-10T10:51:10;16.00;69.60
78886;DHT22;68269;52.514;5.722;2023-05-10T10:53:43;16.00;69.50
78886;DHT22;68269;52.514;5.722;2023-05-10T10:56:13;16.00;69.40
78886;DHT22;68269;52.514;5.722;2023-05-10T10:58:49;16.10;69.20
78886;DHT22;68269;52.514;5.722;2023-05-10T11:01:20;16.20;69.00
78886;DHT22;68269;52.514;5.722;2023-05-10T11:04:21;16.20;69.00
78886;DHT22;68269;52.514;5.722;2023-05-10T11:06:50;16.40;68.70
78886;DHT22;68269;52.514;5.722;2023-05-10T11:09:19;16.40;68.70
78886;DHT22;68269;52.514;5.722;2023-05-10T11:11:54;16.50;68.60
78886;DHT22;68269;52.514;5.722;2023-05-10T11:14:25;16.60;68.40
78886;DHT22;68269;52.514;5.722;2023-05-10T11:16:54;16.70;68.20
78886;DHT22;68269;52.514;5.722;2023-05-10T11:19:27;16.70;68.20
78886;DHT22;68269;52.514;5.722;2023-05-10T11:22:12;16.70;68.20
78886;DHT22;68269;52.514;5.722;2023-05-10T11:24:41;16.80;68.20
78886;DHT22;68269;52.514;5.722;2023-05-10T11:27:25;16.90;68.20
78886;DHT22;68269;52.514;5.722;2023-05-10T11:29:55;16.90;68.20
78886;DHT22;68269;52.514;5.722;2023-05-10T11:32:24;16.90;68.20
78886;DHT22;68269;52.514;5.722;2023-05-10T11:34:56;17.00;68.20
78886;DHT22;68269;52.514;5.722;2023-05-10T11:37:28;17.10;68.00
78886;DHT22;68269;52.514;5.722;2023-05-10T11:40:00;17.10;67.90
78886;DHT22;68269;52.514;5.722;2023-05-10T11:42:29;17.20;67.90
78886;DHT22;68269;52.514;5.722;2023-05-10T11:45:00;17.20;67.90
78886;DHT22;68269;52.514;5.722;2023-05-10T11:47:30;17.20;67.80
78886;DHT22;68269;52.514;5.722;2023-05-10T11:50:05;17.30;67.80
78886;DHT22;68269;52.514;5.722;2023-05-10T11:52:36;17.30;67.80
78886;DHT22;68269;52.514;5.722;2023-05-10T11:55:06;17.40;67.80
78886;DHT22;68269;52.514;5.722;2023-05-10T11:57:36;17.50;67.80
78886;DHT22;68269;52.514;5.722;2023-05-10T12:00:08;17.50;67.70
78886;DHT22;68269;52.514;5.722;2023-05-10T12:02:38;17.60;67.60
78886;DHT22;68269;52.514;5.722;2023-05-10T12:05:10;17.60;67.50
78886;DHT22;68269;52.514;5.722;2023-05-10T12:07:40;17.60;67.40
78886;DHT22;68269;52.514;5.722;2023-05-10T12:10:10;17.60;67.50
78886;DHT22;68269;52.514;5.722;2023-05-10T12:12:41;17.60;67.50
78886;DHT22;68269;52.514;5.722;2023-05-10T12:15:12;17.60;67.40
78886;DHT22;68269;52.514;5.722;2023-05-10T12:17:46;17.60;67.50
78886;DHT22;68269;52.514;5.722;2023-05-10T12:20:20;17.70;67.50
78886;DHT22;68269;52.514;5.722;2023-05-10T12:22:51;17.70;67.30
78886;DHT22;68269;52.514;5.722;2023-05-10T12:25:22;17.60;67.40
78886;DHT22;68269;52.514;5.722;2023-05-10T12:27:52;17.60;67.40
78886;DHT22;68269;52.514;5.722;2023-05-10T12:30:23;17.60;67.50
78886;DHT22;68269;52.514;5.722;2023-05-10T12:32:53;17.60;67.50
78886;DHT22;68269;52.514;5.722;2023-05-10T12:35:25;17.60;67.50
78886;DHT22;68269;52.514;5.722;2023-05-10T12:37:58;17.60;67.50
78886;DHT22;68269;52.514;5.722;2023-05-10T12:40:27;17.60;67.50
78886;DHT22;68269;52.514;5.722;2023-05-10T12:42:56;17.60;67.30
78886;DHT22;68269;52.514;5.722;2023-05-10T12:45:26;17.50;67.30
78886;DHT22;68269;52.514;5.722;2023-05-10T12:47:55;17.50;67.40
78886;DHT22;68269;52.514;5.722;2023-05-10T12:50:27;17.50;67.40
78886;DHT22;68269;52.514;5.722;2023-05-10T12:52:56;17.50;67.30
78886;DHT22;68269;52.514;5.722;2023-05-10T12:55:26;17.50;67.30
78886;DHT22;68269;52.514;5.722;2023-05-10T12:57:55;17.50;67.20
78886;DHT22;68269;52.514;5.722;2023-05-10T13:00:25;17.60;67.20
78886;DHT22;68269;52.514;5.722;2023-05-10T13:02:54;17.60;67.20
78886;DHT22;68269;52.514;5.722;2023-05-10T13:05:23;17.60;67.20
78886;DHT22;68269;52.514;5.722;2023-05-10T13:07:55;17.70;67.10
78886;DHT22;68269;52.514;5.722;2023-05-10T13:10:24;17.70;67.00
78886;DHT22;68269;52.514;5.722;2023-05-10T13:12:54;17.80;66.90
78886;DHT22;68269;52.514;5.722;2023-05-10T13:15:23;17.80;66.70
78886;DHT22;68269;52.514;5.722;2023-05-10T13:17:53;18.00;66.60
78886;DHT22;68269;52.514;5.722;2023-05-10T13:20:22;18.00;66.50
78886;DHT22;68269;52.514;5.722;2023-05-10T13:22:52;18.00;66.40
78886;DHT22;68269;52.514;5.722;2023-05-10T13:25:24;18.00;66.30
78886;DHT22;68269;52.514;5.722;2023-05-10T13:27:53;18.00;66.20
78886;DHT22;68269;52.514;5.722;2023-05-10T13:30:22;18.10;66.10
78886;DHT22;68269;52.514;5.722;2023-05-10T13:32:52;18.10;66.10
78886;DHT22;68269;52.514;5.722;2023-05-10T13:35:22;18.20;66.00
78886;DHT22;68269;52.514;5.722;2023-05-10T13:37:51;18.20;65.90
78886;DHT22;68269;52.514;5.722;2023-05-10T13:40:25;18.20;65.90
78886;DHT22;68269;52.514;5.722;2023-05-10T13:42:54;18.20;65.80
78886;DHT22;68269;52.514;5.722;2023-05-10T13:45:24;18.20;65.80
78886;DHT22;68269;52.514;5.722;2023-05-10T13:47:53;18.30;65.70
78886;DHT22;68269;52.514;5.722;2023-05-10T13:50:23;18.30;65.70
78886;DHT22;68269;52.514;5.722;2023-05-10T13:52:53;18.50;65.50
78886;DHT22;68269;52.514;5.722;2023-05-10T13:55:25;18.60;65.40
78886;DHT22;68269;52.514;5.722;2023-05-10T13:57:55;18.60;65.40
78886;DHT22;68269;52.514;5.722;2023-05-10T14:00:24;18.70;65.30
78886;DHT22;68269;52.514;5.722;2023-05-10T14:02:53;18.60;65.20
78886;DHT22;68269;52.514;5.722;2023-05-10T14:05:23;18.60;65.20
78886;DHT22;68269;52.514;5.722;2023-05-10T14:07:52;18.70;65.20
78886;DHT22;68269;52.514;5.722;2023-05-10T14:10:21;18.80;65.00
78886;DHT22;68269;52.514;5.722;2023-05-10T14:12:53;18.80;64.80
78886;DHT22;68269;52.514;5.722;2023-05-10T14:15:23;18.90;64.70
78886;DHT22;68269;52.514;5.722;2023-05-10T14:17:52;19.00;64.70
78886;DHT22;68269;52.514;5.722;2023-05-10T14:20:21;19.10;64.50
78886;DHT22;68269;52.514;5.722;2023-05-10T14:22:50;19.10;64.40
78886;DHT22;68269;52.514;5.722;2023-05-10T14:25:20;19.20;64.30
78886;DHT22;68269;52.514;5.722;2023-05-10T14:27:49;19.10;64.30
78886;DHT22;68269;52.514;5.722;2023-05-10T14:30:23;19.10;64.40
78886;DHT22;68269;52.514;5.722;2023-05-10T14:32:52;19.10;64.40
78886;DHT22;68269;52.514;5.722;2023-05-10T14:35:24;19.10;64.40
78886;DHT22;68269;52.514;5.722;2023-05-10T14:37:53;19.20;64.30
78886;DHT22;68269;52.514;5.722;2023-05-10T14:40:23;19.30;64.20
78886;DHT22;68269;52.514;5.722;2023-05-10T14:42:52;19.30;64.10
78886;DHT22;68269;52.514;5.722;2023-05-10T14:45:25;19.40;64.00
78886;DHT22;68269;52.514;5.722;2023-05-10T14:47:54;19.50;63.80
78886;DHT22;68269;52.514;5.722;2023-05-10T14:50:23;19.50;63.70
78886;DHT22;68269;52.514;5.722;2023-05-10T14:52:53;19.50;63.70
78886;DHT22;68269;52.514;5.722;2023-05-10T14:55:23;19.50;63.60
78886;DHT22;68269;52.514;5.722;2023-05-10T14:57:52;19.50;63.60
78886;DHT22;68269;52.514;5.722;2023-05-10T15:00:24;19.50;63.60
78886;DHT22;68269;52.514;5.722;2023-05-10T15:02:53;19.50;63.50
78886;DHT22;68269;52.514;5.722;2023-05-10T15:05:23;19.50;63.60
78886;DHT22;68269;52.514;5.722;2023-05-10T15:07:53;19.50;63.60
78886;DHT22;68269;52.514;5.722;2023-05-10T15:10:22;19.70;63.50
78886;DHT22;68269;52.514;5.722;2023-05-10T15:12:51;19.70;63.40
78886;DHT22;68269;52.514;5.722;2023-05-10T15:15:23;19.90;63.20
78886;DHT22;68269;52.514;5.722;2023-05-10T15:17:53;20.00;63.00
78886;DHT22;68269;52.514;5.722;2023-05-10T15:20:22;20.10;62.90
78886;DHT22;68269;52.514;5.722;2023-05-10T15:22:51;20.30;62.80
78886;DHT22;68269;52.514;5.722;2023-05-10T15:25:21;20.30;62.80
78886;DHT22;68269;52.514;5.722;2023-05-10T15:27:50;20.20;63.00
78886;DHT22;68269;52.514;5.722;2023-05-10T15:30:30;20.00;63.20
78886;DHT22;68269;52.514;5.722;2023-05-10T15:33:00;19.90;63.20
78886;DHT22;68269;52.514;5.722;2023-05-10T15:35:29;19.70;63.50
78886;DHT22;68269;52.514;5.722;2023-05-10T15:37:59;19.70;63.60
78886;DHT22;68269;52.514;5.722;2023-05-10T15:40:28;19.50;63.70
78886;DHT22;68269;52.514;5.722;2023-05-10T15:42:58;19.50;63.70
78886;DHT22;68269;52.514;5.722;2023-05-10T15:45:30;19.50;63.70
78886;DHT22;68269;52.514;5.722;2023-05-10T15:47:59;19.40;63.70
78886;DHT22;68269;52.514;5.722;2023-05-10T15:50:28;19.50;63.60
78886;DHT22;68269;52.514;5.722;2023-05-10T15:52:58;19.80;63.40
78886;DHT22;68269;52.514;5.722;2023-05-10T15:55:27;20.00;63.00